Time;durP1;ratioP1;P1;durP2;ratioP2;P2;SDS_P1;SDS_P2;PMS_P1;PMS_P2;Temp;Humidity;BMP_temperature;BMP_pressure;BME280_temperature;BME280_humidity;BME280_pressure;Samples;Min_cycle;Max_cycle;Signal;HPM_P1;HPM_P2
2022/07/08 00:00:54;;;;;;;3.17;2.30;;;;;;;;;;4389998;32;20535;-81
2022/07/08 00:03:20;;;;;;;2.97;2.35;;;;;;;;;;4388792;32;20209;-84
2022/07/08 00:05:45;;;;;;;5.68;2.37;;;;;;;;;;4390680;32;20189;-80
2022/07/08 00:08:11;;;;;;;4.45;2.17;;;;;;;;;;4390284;32;20312;-80
2022/07/08 00:10:37;;;;;;;5.03;2.45;;;;;;;;;;4389686;32;20262;-80
2022/07/08 00:13:04;;;;;;;3.70;2.45;;;;;;;;;;4388695;32;20624;-84
2022/07/08 00:15:30;;;;;;;3.12;2.53;;;;;;;;;;4390240;32;20594;-84
2022/07/08 00:17:56;;;;;;;5.00;2.12;;;;;;;;;;4376289;32;20607;-83
2022/07/08 00:20:23;;;;;;;4.32;2.08;;;;;;;;;;4390212;32;20645;-81
2022/07/08 00:22:49;;;;;;;3.10;2.30;;;;;;;;;;4389790;32;20538;-81
2022/07/08 00:25:15;;;;;;;4.90;2.70;;;;;;;;;;4390140;32;20213;-84
2022/07/08 00:27:41;;;;;;;5.47;1.98;;;;;;;;;;4389800;32;20194;-83
2022/07/08 00:30:08;;;;;;;3.03;2.15;;;;;;;;;;4389466;32;20288;-84
2022/07/08 00:32:36;;;;;;;2.20;2.00;;;;;;;;;;4389767;32;20611;-83
2022/07/08 00:35:02;;;;;;;2.45;2.03;;;;;;;;;;4389606;32;20626;-84
2022/07/08 00:37:28;;;;;;;2.30;2.10;;;;;;;;;;4390078;32;20551;-80
2022/07/08 00:39:54;;;;;;;3.08;2.12;;;;;;;;;;4363494;32;20226;-81
2022/07/08 00:42:20;;;;;;;2.37;2.17;;;;;;;;;;4389191;32;20627;-84
2022/07/08 00:44:46;;;;;;;2.33;2.08;;;;;;;;;;4389430;32;20880;-81
2022/07/08 00:47:12;;;;;;;3.83;2.05;;;;;;;;;;4389355;32;20234;-81
2022/07/08 00:49:39;;;;;;;3.25;2.20;;;;;;;;;;4389592;32;20193;-84
2022/07/08 00:52:06;;;;;;;5.55;2.37;;;;;;;;;;4376215;32;20691;-84
2022/07/08 00:54:32;;;;;;;2.15;1.95;;;;;;;;;;4389554;32;20566;-84
2022/07/08 00:56:58;;;;;;;2.15;1.90;;;;;;;;;;4389409;32;20681;-81
2022/07/08 00:59:25;;;;;;;2.50;2.30;;;;;;;;;;4389437;32;20618;-80
2022/07/08 01:01:51;;;;;;;2.58;2.37;;;;;;;;;;4389412;32;20559;-81
2022/07/08 01:04:17;;;;;;;3.03;2.33;;;;;;;;;;4375950;32;20296;-81
2022/07/08 01:06:43;;;;;;;3.55;2.30;;;;;;;;;;4375900;32;20559;-83
2022/07/08 01:09:09;;;;;;;2.33;1.90;;;;;;;;;;4389428;32;20185;-83
2022/07/08 01:11:36;;;;;;;2.35;1.75;;;;;;;;;;4389120;32;20614;-80
2022/07/08 01:14:03;;;;;;;2.58;2.17;;;;;;;;;;4389150;32;20527;-80
2022/07/08 01:16:29;;;;;;;2.97;2.53;;;;;;;;;;4388997;32;20634;-81
2022/07/08 01:18:55;;;;;;;3.03;2.22;;;;;;;;;;4389028;32;20243;-84
2022/07/08 01:21:22;;;;;;;2.75;2.33;;;;;;;;;;4375259;32;20252;-84
2022/07/08 01:23:48;;;;;;;2.05;1.90;;;;;;;;;;4375952;32;20557;-80
2022/07/08 01:26:14;;;;;;;2.28;1.87;;;;;;;;;;4388157;32;20279;-82
2022/07/08 01:28:42;;;;;;;1.90;1.75;;;;;;;;;;4389052;32;20575;-81
2022/07/08 01:31:08;;;;;;;2.70;2.08;;;;;;;;;;4389170;32;20638;-81
2022/07/08 01:33:33;;;;;;;3.97;2.28;;;;;;;;;;4388991;32;20259;-81
2022/07/08 01:35:59;;;;;;;2.22;2.00;;;;;;;;;;4388803;32;20221;-84
2022/07/08 01:38:25;;;;;;;3.42;2.30;;;;;;;;;;4389066;32;20198;-81
2022/07/08 01:40:51;;;;;;;3.80;2.00;;;;;;;;;;4388837;32;20271;-84
2022/07/08 01:43:17;;;;;;;2.95;2.08;;;;;;;;;;4389022;32;20201;-81
2022/07/08 01:45:43;;;;;;;2.40;2.17;;;;;;;;;;4375616;32;20657;-85
2022/07/08 01:48:09;;;;;;;2.47;2.28;;;;;;;;;;4375311;32;20292;-84
2022/07/08 01:50:34;;;;;;;5.37;2.60;;;;;;;;;;4388903;32;20221;-84
2022/07/08 01:53:00;;;;;;;5.40;4.00;;;;;;;;;;4389321;32;20222;-81
2022/07/08 01:55:26;;;;;;;6.18;3.28;;;;;;;;;;4388694;32;20281;-81
2022/07/08 01:57:52;;;;;;;12.55;6.87;;;;;;;;;;4375175;32;20214;-81
2022/07/08 02:00:18;;;;;;;20.08;8.27;;;;;;;;;;4387591;32;20247;-80
2022/07/08 02:02:44;;;;;;;20.23;11.52;;;;;;;;;;4389295;32;20649;-81
2022/07/08 02:05:10;;;;;;;23.25;12.93;;;;;;;;;;4387427;32;20572;-81
2022/07/08 02:07:37;;;;;;;21.37;12.23;;;;;;;;;;4388623;32;20685;-80
2022/07/08 02:10:04;;;;;;;15.50;8.75;;;;;;;;;;4388437;32;20602;-81
2022/07/08 02:12:30;;;;;;;9.50;8.00;;;;;;;;;;4388764;32;20514;-81
2022/07/08 02:15:03;;;;;;;10.77;7.97;;;;;;;;;;4388539;32;20249;-84
2022/07/08 02:17:38;;;;;;;8.50;4.32;;;;;;;;;;4388656;32;20602;-81
2022/07/08 02:20:05;;;;;;;6.90;3.05;;;;;;;;;;4375644;32;20609;-80
2022/07/08 02:22:32;;;;;;;5.35;3.35;;;;;;;;;;4387229;32;20593;-81
2022/07/08 02:24:59;;;;;;;5.60;2.30;;;;;;;;;;4387071;32;20567;-81
2022/07/08 02:27:24;;;;;;;3.37;2.60;;;;;;;;;;4388504;32;20554;-84
2022/07/08 02:29:52;;;;;;;5.65;2.37;;;;;;;;;;4388632;32;20190;-81
2022/07/08 02:32:17;;;;;;;2.50;2.17;;;;;;;;;;4375464;32;20536;-83
2022/07/08 02:34:45;;;;;;;3.42;2.45;;;;;;;;;;4391634;32;20228;-83
2022/07/08 02:37:13;;;;;;;3.25;2.55;;;;;;;;;;4391325;32;20724;-84
2022/07/08 02:39:39;;;;;;;4.35;2.40;;;;;;;;;;4377860;32;20547;-80
2022/07/08 02:42:05;;;;;;;6.37;2.90;;;;;;;;;;4391008;32;20598;-80
2022/07/08 02:44:31;;;;;;;7.32;2.92;;;;;;;;;;4391323;32;20551;-80
2022/07/08 02:46:57;;;;;;;3.22;2.60;;;;;;;;;;4390917;32;20586;-83
2022/07/08 02:49:23;;;;;;;3.20;2.65;;;;;;;;;;4390887;32;20231;-80
2022/07/08 02:51:49;;;;;;;3.08;2.10;;;;;;;;;;4390742;32;20680;-80
2022/07/08 02:54:16;;;;;;;4.97;2.60;;;;;;;;;;4390907;32;20194;-83
2022/07/08 02:56:42;;;;;;;3.33;2.60;;;;;;;;;;4390643;32;20552;-81
2022/07/08 02:59:08;;;;;;;2.85;2.25;;;;;;;;;;4390630;32;20220;-81
2022/07/08 03:01:34;;;;;;;2.50;2.00;;;;;;;;;;4390664;32;20672;-80
2022/07/08 03:04:00;;;;;;;3.00;2.70;;;;;;;;;;4390878;32;20511;-82
2022/07/08 03:06:27;;;;;;;4.35;2.70;;;;;;;;;;4389354;32;20645;-84
2022/07/08 03:08:54;;;;;;;3.17;2.37;;;;;;;;;;4377221;32;20528;-84
2022/07/08 03:11:20;;;;;;;5.07;2.55;;;;;;;;;;4390528;32;20585;-84
2022/07/08 03:13:45;;;;;;;3.40;3.10;;;;;;;;;;4390976;32;20254;-82
2022/07/08 03:16:11;;;;;;;2.70;2.50;;;;;;;;;;4390506;32;20230;-83
2022/07/08 03:18:37;;;;;;;5.85;2.67;;;;;;;;;;4390322;32;20190;-82
2022/07/08 03:21:03;;;;;;;5.55;2.87;;;;;;;;;;4390419;32;20221;-80
2022/07/08 03:23:30;;;;;;;4.07;2.78;;;;;;;;;;4390521;32;20619;-83
2022/07/08 03:25:56;;;;;;;6.55;2.60;;;;;;;;;;4390374;32;20763;-81
2022/07/08 03:28:23;;;;;;;3.15;2.78;;;;;;;;;;4390469;32;20611;-83
2022/07/08 03:30:49;;;;;;;9.68;3.17;;;;;;;;;;4390209;32;20558;-83
2022/07/08 03:33:15;;;;;;;8.25;3.72;;;;;;;;;;4390557;32;20574;-80
2022/07/08 03:35:41;;;;;;;3.10;2.80;;;;;;;;;;4390354;32;20225;-81
2022/07/08 03:38:07;;;;;;;8.55;3.03;;;;;;;;;;4389309;32;20225;-80
2022/07/08 03:43:17;;;;;;;7.93;3.50;;;;;;;;;;4389997;32;20217;-82
2022/07/08 03:45:43;;;;;;;3.78;3.45;;;;;;;;;;4375988;32;20210;-80
2022/07/08 03:48:09;;;;;;;8.82;4.15;;;;;;;;;;4389913;32;20272;-84
2022/07/08 03:50:35;;;;;;;6.43;4.20;;;;;;;;;;4389937;32;20240;-80
2022/07/08 03:53:01;;;;;;;6.72;5.00;;;;;;;;;;4390103;32;20221;-83
2022/07/08 03:55:27;;;;;;;10.45;6.25;;;;;;;;;;4390071;32;20367;-81
2022/07/08 03:57:53;;;;;;;10.65;5.70;;;;;;;;;;4390250;32;20209;-81
2022/07/08 04:00:19;;;;;;;5.10;4.60;;;;;;;;;;4389753;32;20562;-80
2022/07/08 04:02:46;;;;;;;15.77;5.32;;;;;;;;;;4389905;32;20477;-80
2022/07/08 04:05:12;;;;;;;12.30;4.57;;;;;;;;;;4389667;32;20655;-84
2022/07/08 04:07:40;;;;;;;9.23;3.90;;;;;;;;;;4389852;32;20554;-81
2022/07/08 04:10:07;;;;;;;9.68;3.33;;;;;;;;;;4388505;32;20714;-85
2022/07/08 04:12:33;;;;;;;4.60;3.42;;;;;;;;;;4389809;32;20604;-84
2022/07/08 04:15:00;;;;;;;6.22;3.53;;;;;;;;;;4389771;32;20598;-82
2022/07/08 04:17:25;;;;;;;13.95;4.10;;;;;;;;;;4389858;32;20662;-81
2022/07/08 04:19:52;;;;;;;8.25;4.80;;;;;;;;;;4389438;32;20696;-81
2022/07/08 04:22:17;;;;;;;7.03;4.18;;;;;;;;;;4375726;32;20563;-81
2022/07/08 04:24:43;;;;;;;4.43;3.55;;;;;;;;;;4389756;32;20220;-81
2022/07/08 04:27:09;;;;;;;6.03;3.45;;;;;;;;;;4389531;32;20248;-81
2022/07/08 04:29:35;;;;;;;7.82;3.90;;;;;;;;;;4388202;32;20425;-83
2022/07/08 04:32:00;;;;;;;3.72;3.10;;;;;;;;;;4389422;32;20272;-80
2022/07/08 04:34:26;;;;;;;3.95;2.97;;;;;;;;;;4389898;32;20295;-83
2022/07/08 04:36:52;;;;;;;4.62;3.37;;;;;;;;;;4389173;32;20315;-80
2022/07/08 04:39:18;;;;;;;3.12;2.65;;;;;;;;;;4389496;32;20190;-79
2022/07/08 04:41:44;;;;;;;6.12;3.35;;;;;;;;;;4375645;32;20218;-84
2022/07/08 04:44:09;;;;;;;8.18;3.37;;;;;;;;;;4389324;32;20202;-80
2022/07/08 04:46:35;;;;;;;8.95;3.60;;;;;;;;;;4389202;32;20234;-83
2022/07/08 04:49:02;;;;;;;13.18;3.30;;;;;;;;;;4389320;32;20185;-79
2022/07/08 04:51:28;;;;;;;4.32;3.60;;;;;;;;;;4375959;32;20524;-83
2022/07/08 04:53:54;;;;;;;4.18;3.33;;;;;;;;;;4390320;32;20642;-83
2022/07/08 04:56:21;;;;;;;6.45;3.53;;;;;;;;;;4389341;32;20593;-83
2022/07/08 04:58:47;;;;;;;5.80;3.42;;;;;;;;;;4388122;32;20731;-83
2022/07/08 05:01:14;;;;;;;3.30;2.53;;;;;;;;;;4389147;32;20214;-83
2022/07/08 05:03:41;;;;;;;4.30;2.62;;;;;;;;;;4390280;32;20539;-87
2022/07/08 05:06:07;;;;;;;5.75;3.20;;;;;;;;;;4389187;32;20586;-90
2022/07/08 05:08:33;;;;;;;3.75;3.15;;;;;;;;;;4375673;32;20218;-81
2022/07/08 05:10:59;;;;;;;4.47;3.47;;;;;;;;;;4389408;32;20218;-82
2022/07/08 05:13:24;;;;;;;3.45;3.15;;;;;;;;;;4389271;32;20268;-83
2022/07/08 05:15:51;;;;;;;4.68;2.78;;;;;;;;;;4389373;32;20217;-83
2022/07/08 05:18:16;;;;;;;5.15;3.17;;;;;;;;;;4389578;32;20693;-81
2022/07/08 05:20:42;;;;;;;5.50;3.58;;;;;;;;;;4375872;32;20288;-84
2022/07/08 05:23:08;;;;;;;4.12;3.25;;;;;;;;;;4375778;32;20194;-90
2022/07/08 05:25:34;;;;;;;4.15;3.08;;;;;;;;;;4389707;32;20213;-90
2022/07/08 05:28:00;;;;;;;3.83;3.42;;;;;;;;;;4393256;32;20186;-81
2022/07/08 05:30:26;;;;;;;7.22;3.30;;;;;;;;;;4392871;32;20289;-81
2022/07/08 05:32:52;;;;;;;5.78;2.70;;;;;;;;;;4398399;32;20264;-83
2022/07/08 05:35:17;;;;;;;7.05;2.92;;;;;;;;;;4378843;32;20263;-81
2022/07/08 05:37:43;;;;;;;5.72;3.35;;;;;;;;;;4393731;32;20279;-80
2022/07/08 05:40:10;;;;;;;12.37;5.03;;;;;;;;;;4390776;32;20567;-81
2022/07/08 05:42:37;;;;;;;19.90;5.90;;;;;;;;;;4389443;32;20673;-81
2022/07/08 05:45:04;;;;;;;16.15;5.37;;;;;;;;;;4363857;32;20626;-87
2022/07/08 05:47:30;;;;;;;13.00;3.70;;;;;;;;;;4392298;32;20638;-80
2022/07/08 05:49:56;;;;;;;14.68;4.82;;;;;;;;;;4375681;32;20728;-80
2022/07/08 05:52:23;;;;;;;4.93;3.62;;;;;;;;;;4389001;32;20622;-85
2022/07/08 05:54:49;;;;;;;4.47;3.05;;;;;;;;;;4374881;32;20629;-81
2022/07/08 05:57:16;;;;;;;3.25;2.90;;;;;;;;;;4387407;32;20582;-81
2022/07/08 05:59:43;;;;;;;10.05;3.40;;;;;;;;;;4387660;32;20673;-82
2022/07/08 06:02:11;;;;;;;7.18;3.50;;;;;;;;;;4388589;32;20579;-82
2022/07/08 06:04:38;;;;;;;4.68;3.45;;;;;;;;;;4388113;32;20645;-82
2022/07/08 06:07:05;;;;;;;9.55;3.75;;;;;;;;;;4377201;32;20198;-82
2022/07/08 06:09:31;;;;;;;3.90;3.05;;;;;;;;;;4391726;32;20485;-82
2022/07/08 06:11:57;;;;;;;10.73;3.22;;;;;;;;;;4391674;32;20233;-81
2022/07/08 06:14:23;;;;;;;3.17;2.87;;;;;;;;;;4390661;32;20567;-82
2022/07/08 06:16:49;;;;;;;3.67;2.70;;;;;;;;;;4391795;32;20224;-82
2022/07/08 06:19:15;;;;;;;4.22;3.12;;;;;;;;;;4378158;32;20218;-83
2022/07/08 06:21:42;;;;;;;2.90;2.60;;;;;;;;;;4391080;32;20239;-83
2022/07/08 06:24:09;;;;;;;6.70;2.85;;;;;;;;;;4391368;32;20623;-79
2022/07/08 06:26:36;;;;;;;3.37;3.03;;;;;;;;;;4391159;32;20484;-80
2022/07/08 06:29:03;;;;;;;4.87;3.80;;;;;;;;;;4391223;32;20641;-79
2022/07/08 06:31:28;;;;;;;8.50;3.65;;;;;;;;;;4391125;32;20587;-82
2022/07/08 06:33:58;;;;;;;3.62;2.90;;;;;;;;;;4390907;32;20277;-84
2022/07/08 06:36:24;;;;;;;4.70;3.45;;;;;;;;;;4390608;32;20586;-83
2022/07/08 06:38:51;;;;;;;5.65;3.47;;;;;;;;;;4391607;32;20549;-83
2022/07/08 06:41:18;;;;;;;4.10;2.92;;;;;;;;;;4377750;32;20539;-83
2022/07/08 06:43:44;;;;;;;7.40;3.50;;;;;;;;;;4390752;32;20721;-82
2022/07/08 06:46:10;;;;;;;4.00;3.12;;;;;;;;;;4390754;32;20645;-80
2022/07/08 06:48:36;;;;;;;3.85;3.40;;;;;;;;;;4390776;32;20328;-80
2022/07/08 06:51:01;;;;;;;3.85;3.00;;;;;;;;;;4391014;32;20221;-79
2022/07/08 06:54:34;;;;;;;5.22;3.28;;;;;;;;;;4390588;32;20239;-83
2022/07/08 06:56:13;;;;;;;5.93;3.22;;;;;;;;;;4390632;32;20214;-81
2022/07/08 06:58:39;;;;;;;5.20;3.22;;;;;;;;;;4390747;32;20342;-83
2022/07/08 07:01:05;;;;;;;9.68;3.28;;;;;;;;;;4390976;32;20240;-84
2022/07/08 07:03:30;;;;;;;5.03;3.30;;;;;;;;;;4390739;32;20315;-83
2022/07/08 07:05:56;;;;;;;3.65;3.08;;;;;;;;;;4390563;32;20272;-85
2022/07/08 07:08:22;;;;;;;3.80;3.22;;;;;;;;;;4389401;32;20222;-84
2022/07/08 07:10:48;;;;;;;4.57;2.90;;;;;;;;;;4377429;32;20567;-87
2022/07/08 07:13:14;;;;;;;4.00;3.28;;;;;;;;;;4390607;32;20555;-82
2022/07/08 07:15:40;;;;;;;5.82;3.80;;;;;;;;;;4389320;32;20275;-82
2022/07/08 07:18:07;;;;;;;5.28;3.05;;;;;;;;;;4389377;32;20244;-83
2022/07/08 07:20:34;;;;;;;5.50;3.25;;;;;;;;;;4390753;32;20576;-85
2022/07/08 07:23:00;;;;;;;7.82;3.30;;;;;;;;;;4390364;32;20226;-85
2022/07/08 07:25:25;;;;;;;4.35;3.05;;;;;;;;;;4390824;32;20189;-81
2022/07/08 07:27:51;;;;;;;5.37;3.28;;;;;;;;;;4390359;32;20210;-81
2022/07/08 07:30:19;;;;;;;5.22;3.72;;;;;;;;;;4390327;32;20193;-85
2022/07/08 07:32:45;;;;;;;19.50;3.67;;;;;;;;;;4390506;32;20693;-83
2022/07/08 07:35:11;;;;;;;3.62;2.67;;;;;;;;;;4389949;32;20611;-83
2022/07/08 07:37:40;;;;;;;7.55;2.80;;;;;;;;;;4390669;32;20383;-82
2022/07/08 07:40:06;;;;;;;4.45;2.60;;;;;;;;;;4389645;32;20629;-81
2022/07/08 07:42:32;;;;;;;3.97;3.03;;;;;;;;;;4390129;32;20618;-81
2022/07/08 07:44:58;;;;;;;4.50;3.22;;;;;;;;;;4376803;32;20216;-83
2022/07/08 07:47:24;;;;;;;3.97;3.25;;;;;;;;;;4388699;32;20234;-84
2022/07/08 07:49:50;;;;;;;4.53;3.42;;;;;;;;;;4388740;32;20574;-86
2022/07/08 07:52:16;;;;;;;6.85;2.97;;;;;;;;;;4390060;32;20632;-86
2022/07/08 07:54:42;;;;;;;4.75;2.35;;;;;;;;;;4388569;32;20230;-86
2022/07/08 07:57:08;;;;;;;3.20;2.35;;;;;;;;;;4389851;32;20333;-86
2022/07/08 07:59:34;;;;;;;2.78;2.10;;;;;;;;;;4390180;32;20202;-82
2022/07/08 08:02:00;;;;;;;2.33;2.00;;;;;;;;;;4389539;32;20194;-82
2022/07/08 08:04:25;;;;;;;2.78;1.90;;;;;;;;;;4389941;32;20193;-85
2022/07/08 08:06:52;;;;;;;2.53;1.87;;;;;;;;;;4389675;32;20272;-83
2022/07/08 08:09:18;;;;;;;4.35;2.17;;;;;;;;;;4389618;32;20508;-86
2022/07/08 08:11:44;;;;;;;3.97;2.55;;;;;;;;;;4389852;32;20220;-83
2022/07/08 08:14:10;;;;;;;5.25;2.00;;;;;;;;;;4389945;32;20577;-85
2022/07/08 08:16:36;;;;;;;2.50;2.05;;;;;;;;;;4376498;32;20508;-85
2022/07/08 08:19:04;;;;;;;3.20;1.90;;;;;;;;;;4389635;32;20632;-86
2022/07/08 08:21:30;;;;;;;2.37;1.80;;;;;;;;;;4389516;32;20594;-86
2022/07/08 08:23:56;;;;;;;2.30;1.52;;;;;;;;;;4389422;32;20211;-80
2022/07/08 08:26:22;;;;;;;3.50;2.47;;;;;;;;;;4389517;32;20600;-82
2022/07/08 08:28:49;;;;;;;2.60;1.48;;;;;;;;;;4375626;32;20301;-81
2022/07/08 08:31:15;;;;;;;3.33;2.00;;;;;;;;;;4389218;32;20511;-80
2022/07/08 08:33:40;;;;;;;4.05;2.12;;;;;;;;;;4389582;32;20202;-82
2022/07/08 08:36:07;;;;;;;5.50;1.87;;;;;;;;;;4375670;32;20293;-83
2022/07/08 08:38:33;;;;;;;3.42;2.12;;;;;;;;;;4376449;32;20480;-80
2022/07/08 08:40:59;;;;;;;7.15;2.10;;;;;;;;;;4375410;32;20221;-80
2022/07/08 08:43:25;;;;;;;9.52;2.60;;;;;;;;;;4389132;32;20541;-80
2022/07/08 08:45:54;;;;;;;7.22;2.25;;;;;;;;;;4388954;32;20654;-81
2022/07/08 08:48:25;;;;;;;3.47;1.50;;;;;;;;;;4387747;32;20603;-80
2022/07/08 08:50:55;;;;;;;2.92;2.22;;;;;;;;;;4388707;32;20655;-81
2022/07/08 08:53:27;;;;;;;1.80;1.50;;;;;;;;;;4388913;32;20619;-82
2022/07/08 08:55:54;;;;;;;2.78;2.12;;;;;;;;;;4388535;32;20575;-79
2022/07/08 08:58:21;;;;;;;4.57;2.33;;;;;;;;;;4389174;32;20574;-80
2022/07/08 09:00:47;;;;;;;17.02;2.50;;;;;;;;;;4389089;32;20720;-81
2022/07/08 09:03:13;;;;;;;4.47;2.22;;;;;;;;;;4388709;32;20197;-80
2022/07/08 09:05:39;;;;;;;9.55;3.65;;;;;;;;;;4389000;32;20218;-80
2022/07/08 09:08:05;;;;;;;4.60;1.95;;;;;;;;;;4389523;32;20182;-80
2022/07/08 09:10:30;;;;;;;3.45;2.00;;;;;;;;;;4389368;32;20646;-80
2022/07/08 09:13:01;;;;;;;2.55;2.10;;;;;;;;;;4389036;32;20287;-80
2022/07/08 09:15:30;;;;;;;6.12;1.80;;;;;;;;;;4389063;32;20691;-81
2022/07/08 09:17:57;;;;;;;6.35;2.00;;;;;;;;;;4387937;32;20867;-80
2022/07/08 09:20:23;;;;;;;3.12;2.00;;;;;;;;;;4389174;32;20586;-81
2022/07/08 09:22:49;;;;;;;3.10;2.22;;;;;;;;;;4389247;32;20205;-81
2022/07/08 09:25:15;;;;;;;3.22;1.90;;;;;;;;;;4389093;32;20689;-80
2022/07/08 09:27:40;;;;;;;3.78;2.08;;;;;;;;;;4389320;32;20567;-79
2022/07/08 09:30:07;;;;;;;2.80;2.08;;;;;;;;;;4389165;32;20307;-80
2022/07/08 09:32:33;;;;;;;2.08;1.77;;;;;;;;;;4388090;32;20581;-81
2022/07/08 09:34:59;;;;;;;2.47;1.90;;;;;;;;;;4375395;32;20623;-81
2022/07/08 09:37:25;;;;;;;7.72;2.30;;;;;;;;;;4389646;32;20252;-79
2022/07/08 09:39:51;;;;;;;3.25;2.25;;;;;;;;;;4388273;32;20667;-81
2022/07/08 09:42:19;;;;;;;3.42;2.17;;;;;;;;;;4377457;32;20679;-81
2022/07/08 09:44:54;;;;;;;5.80;1.60;;;;;;;;;;4392237;32;20597;-80
2022/07/08 09:47:20;;;;;;;7.47;1.85;;;;;;;;;;4391735;32;20603;-80
2022/07/08 09:49:47;;;;;;;3.03;2.05;;;;;;;;;;4392076;32;20551;-82
2022/07/08 09:52:21;;;;;;;2.62;1.62;;;;;;;;;;4392280;32;20240;-81
2022/07/08 09:54:59;;;;;;;1.98;1.50;;;;;;;;;;4392124;32;20626;-81
2022/07/08 09:57:26;;;;;;;4.93;1.85;;;;;;;;;;4392100;32;20582;-80
2022/07/08 09:59:53;;;;;;;2.87;1.92;;;;;;;;;;4390810;32;20597;-80
2022/07/08 10:02:19;;;;;;;1.92;1.50;;;;;;;;;;4378622;32;20586;-80
2022/07/08 10:04:48;;;;;;;2.22;1.50;;;;;;;;;;4392357;32;20653;-81
2022/07/08 10:07:17;;;;;;;1.87;1.67;;;;;;;;;;4392206;32;20523;-80
2022/07/08 10:09:43;;;;;;;3.62;1.98;;;;;;;;;;4391888;32;20612;-84
2022/07/08 10:12:14;;;;;;;2.62;1.60;;;;;;;;;;4392096;32;20565;-83
2022/07/08 10:14:46;;;;;;;1.98;1.77;;;;;;;;;;4392151;32;20627;-82
2022/07/08 10:17:16;;;;;;;2.67;1.98;;;;;;;;;;4392306;32;20595;-83
2022/07/08 10:19:45;;;;;;;2.25;1.70;;;;;;;;;;4391841;32;20541;-81
2022/07/08 10:22:11;;;;;;;2.10;1.80;;;;;;;;;;4378117;32;20542;-84
2022/07/08 10:24:41;;;;;;;3.15;2.30;;;;;;;;;;4391797;32;20736;-81
2022/07/08 10:27:09;;;;;;;4.90;1.95;;;;;;;;;;4391857;32;20666;-81
2022/07/08 10:29:36;;;;;;;3.97;2.08;;;;;;;;;;4391812;32;20570;-83
2022/07/08 10:32:03;;;;;;;2.15;1.77;;;;;;;;;;4391493;32;20567;-80
2022/07/08 10:34:34;;;;;;;2.08;1.87;;;;;;;;;;4391936;32;20571;-81
2022/07/08 10:37:02;;;;;;;2.35;1.58;;;;;;;;;;4391700;32;20589;-83
2022/07/08 10:39:31;;;;;;;5.93;1.80;;;;;;;;;;4391617;32;20722;-81
2022/07/08 10:42:00;;;;;;;2.28;1.67;;;;;;;;;;4391872;32;20594;-83
2022/07/08 10:44:44;;;;;;;2.10;1.73;;;;;;;;;;4391951;32;20665;-83
2022/07/08 10:47:11;;;;;;;4.85;2.00;;;;;;;;;;4391326;32;20626;-80
2022/07/08 10:49:41;;;;;;;2.72;1.85;;;;;;;;;;4391437;32;20607;-80
2022/07/08 10:52:08;;;;;;;2.72;2.12;;;;;;;;;;4392303;32;20584;-80
2022/07/08 10:54:37;;;;;;;1.87;1.67;;;;;;;;;;4390970;32;20689;-81
2022/07/08 10:57:27;;;;;;;2.75;1.98;;;;;;;;;;4392042;32;20590;-81
2022/07/08 11:00:05;;;;;;;2.25;2.00;;;;;;;;;;4391675;32;20583;-81
2022/07/08 11:02:31;;;;;;;3.22;2.20;;;;;;;;;;4390615;32;20536;-81
2022/07/08 11:04:57;;;;;;;4.72;1.70;;;;;;;;;;4391472;32;20415;-80
2022/07/08 11:07:28;;;;;;;4.18;2.20;;;;;;;;;;4391573;32;20610;-80
2022/07/08 11:10:13;;;;;;;6.05;1.65;;;;;;;;;;4392217;32;20719;-80
2022/07/08 11:12:45;;;;;;;4.57;1.92;;;;;;;;;;4391582;32;20496;-80
2022/07/08 11:15:13;;;;;;;2.80;1.75;;;;;;;;;;4391687;32;20535;-83
2022/07/08 11:17:40;;;;;;;3.92;1.77;;;;;;;;;;4391670;32;20597;-80
2022/07/08 11:20:13;;;;;;;5.75;1.80;;;;;;;;;;4377823;32;20644;-83
2022/07/08 11:22:40;;;;;;;4.15;1.75;;;;;;;;;;4391446;32;20672;-81
2022/07/08 11:25:07;;;;;;;4.75;1.80;;;;;;;;;;4391305;32;20659;-79
2022/07/08 11:27:34;;;;;;;5.85;1.55;;;;;;;;;;4391180;32;20549;-80
2022/07/08 11:30:01;;;;;;;2.67;1.87;;;;;;;;;;4390808;32;20692;-80
2022/07/08 11:32:27;;;;;;;2.70;2.17;;;;;;;;;;4390720;32;20648;-80
2022/07/08 11:34:55;;;;;;;2.45;1.98;;;;;;;;;;4389485;32;20628;-80
2022/07/08 11:37:22;;;;;;;4.55;2.12;;;;;;;;;;4390947;32;20492;-78
2022/07/08 11:39:48;;;;;;;1.50;1.40;;;;;;;;;;4390800;32;20680;-80
2022/07/08 11:42:14;;;;;;;3.15;1.60;;;;;;;;;;4389603;32;20225;-82
2022/07/08 11:44:41;;;;;;;3.50;1.62;;;;;;;;;;4390568;32;20645;-80
2022/07/08 11:47:20;;;;;;;6.47;1.60;;;;;;;;;;4390581;32;20728;-85
2022/07/08 11:49:48;;;;;;;2.17;1.60;;;;;;;;;;4391483;32;20405;-80
2022/07/08 11:52:18;;;;;;;6.68;1.85;;;;;;;;;;4391106;32;20574;-80
2022/07/08 11:54:48;;;;;;;1.75;1.35;;;;;;;;;;4377943;32;20638;-81
2022/07/08 11:57:16;;;;;;;3.83;1.80;;;;;;;;;;4390965;32;20591;-81
2022/07/08 11:59:45;;;;;;;7.20;1.70;;;;;;;;;;4390991;32;20602;-80
2022/07/08 12:02:11;;;;;;;4.60;1.62;;;;;;;;;;4390901;32;20575;-79
2022/07/08 12:04:40;;;;;;;7.72;1.85;;;;;;;;;;4390277;32;20654;-81
2022/07/08 12:07:25;;;;;;;6.22;1.75;;;;;;;;;;4377722;32;20599;-81
2022/07/08 12:10:08;;;;;;;3.53;2.42;;;;;;;;;;4390471;32;20584;-79
2022/07/08 12:12:35;;;;;;;2.10;1.45;;;;;;;;;;4390589;32;20665;-79
2022/07/08 12:15:11;;;;;;;3.70;1.58;;;;;;;;;;4390557;32;20543;-79
2022/07/08 12:17:37;;;;;;;3.60;1.60;;;;;;;;;;4390378;32;20574;-79
2022/07/08 12:20:03;;;;;;;2.12;1.35;;;;;;;;;;4390484;32;20257;-79
2022/07/08 12:22:49;;;;;;;3.78;1.50;;;;;;;;;;4388820;32;20572;-81
2022/07/08 12:25:17;;;;;;;2.58;1.65;;;;;;;;;;4390080;32;20543;-78
2022/07/08 12:27:44;;;;;;;4.10;1.83;;;;;;;;;;4390038;32;20562;-79
2022/07/08 12:30:10;;;;;;;2.55;1.92;;;;;;;;;;4390150;32;20689;-79
2022/07/08 12:32:40;;;;;;;2.62;2.40;;;;;;;;;;4389384;32;20727;-81
2022/07/08 12:35:09;;;;;;;8.75;1.70;;;;;;;;;;4389705;32;20690;-84
2022/07/08 12:37:35;;;;;;;3.62;1.90;;;;;;;;;;4389396;32;20625;-83
2022/07/08 12:40:18;;;;;;;3.10;1.90;;;;;;;;;;4389755;32;20625;-82
2022/07/08 12:43:05;;;;;;;4.53;2.30;;;;;;;;;;4389294;32;20217;-82
2022/07/08 12:45:31;;;;;;;7.00;2.10;;;;;;;;;;4389786;32;20662;-82
2022/07/08 12:48:02;;;;;;;12.35;2.47;;;;;;;;;;4389359;32;20595;-82
2022/07/08 12:50:29;;;;;;;2.30;1.67;;;;;;;;;;4389799;32;20599;-81
2022/07/08 12:52:55;;;;;;;3.10;1.60;;;;;;;;;;4389713;32;20613;-82
2022/07/08 12:55:22;;;;;;;3.12;2.03;;;;;;;;;;4389558;32;20485;-82
2022/07/08 12:57:48;;;;;;;8.57;2.78;;;;;;;;;;4389229;32;20647;-80
2022/07/08 13:00:14;;;;;;;3.22;2.28;;;;;;;;;;4389305;32;20591;-81
2022/07/08 13:02:41;;;;;;;4.55;1.90;;;;;;;;;;4387899;32;20613;-80
2022/07/08 13:05:08;;;;;;;2.85;2.20;;;;;;;;;;4389248;32;20646;-83
2022/07/08 13:07:34;;;;;;;5.07;2.55;;;;;;;;;;4389233;32;20674;-80
2022/07/08 13:10:00;;;;;;;5.32;2.30;;;;;;;;;;4389254;32;20551;-84
2022/07/08 13:12:27;;;;;;;3.20;2.25;;;;;;;;;;4389207;32;20319;-84
2022/07/08 13:14:53;;;;;;;2.42;2.12;;;;;;;;;;4375921;32;20591;-85
2022/07/08 13:17:19;;;;;;;2.08;1.87;;;;;;;;;;4389170;32;20291;-80
2022/07/08 13:19:45;;;;;;;2.00;1.80;;;;;;;;;;4389277;32;20546;-81
2022/07/08 13:22:11;;;;;;;5.32;2.17;;;;;;;;;;4389016;32;20546;-81
2022/07/08 13:24:39;;;;;;;6.00;2.10;;;;;;;;;;4389262;32;20579;-81
2022/07/08 13:27:05;;;;;;;2.65;1.73;;;;;;;;;;4389037;32;20555;-81
2022/07/08 13:29:32;;;;;;;3.05;1.62;;;;;;;;;;4389240;32;20613;-81
2022/07/08 13:31:58;;;;;;;3.03;1.92;;;;;;;;;;4389632;32;20546;-85
2022/07/08 13:34:24;;;;;;;4.47;1.95;;;;;;;;;;4389192;32;20535;-81
2022/07/08 13:36:50;;;;;;;5.60;2.08;;;;;;;;;;4389089;32;20221;-85
2022/07/08 13:39:17;;;;;;;6.03;2.08;;;;;;;;;;4389491;32;20664;-84
2022/07/08 13:41:43;;;;;;;2.40;2.20;;;;;;;;;;4389406;32;20492;-85
2022/07/08 13:44:09;;;;;;;5.53;2.00;;;;;;;;;;4389300;32;20651;-81
2022/07/08 13:46:35;;;;;;;1.92;1.70;;;;;;;;;;4389210;32;20236;-84
2022/07/08 13:49:01;;;;;;;4.18;1.80;;;;;;;;;;4389279;32;20210;-84
2022/07/08 13:51:30;;;;;;;2.70;1.50;;;;;;;;;;4389059;32;20728;-81
2022/07/08 13:53:57;;;;;;;1.75;1.33;;;;;;;;;;4375473;32;20676;-84
2022/07/08 13:56:24;;;;;;;5.07;1.95;;;;;;;;;;4388858;32;20595;-85
2022/07/08 13:58:49;;;;;;;7.03;1.90;;;;;;;;;;4388775;32;20626;-84
2022/07/08 14:01:17;;;;;;;3.37;2.00;;;;;;;;;;4375943;32;20257;-85
2022/07/08 14:03:43;;;;;;;3.12;2.00;;;;;;;;;;4388988;32;20562;-84
2022/07/08 14:06:08;;;;;;;3.67;1.87;;;;;;;;;;4376168;32;20202;-85
2022/07/08 14:08:34;;;;;;;3.40;1.83;;;;;;;;;;4389159;32;20279;-81
2022/07/08 14:11:03;;;;;;;1.85;1.65;;;;;;;;;;4389605;32;20202;-81
2022/07/08 14:13:30;;;;;;;2.62;2.00;;;;;;;;;;4389366;32;20647;-82
2022/07/08 14:15:57;;;;;;;3.20;1.65;;;;;;;;;;4389028;32;20512;-85
2022/07/08 14:18:23;;;;;;;9.73;2.17;;;;;;;;;;4375297;32;20624;-85
2022/07/08 14:20:49;;;;;;;3.17;1.90;;;;;;;;;;4388620;32;20657;-85
2022/07/08 14:23:15;;;;;;;4.35;2.35;;;;;;;;;;4387196;32;20581;-85
2022/07/08 14:25:42;;;;;;;6.30;2.08;;;;;;;;;;4387454;32;20621;-85
2022/07/08 14:28:08;;;;;;;6.75;1.90;;;;;;;;;;4375235;32;20593;-85
2022/07/08 14:30:34;;;;;;;2.85;2.00;;;;;;;;;;4391830;32;20562;-84
2022/07/08 14:33:00;;;;;;;5.15;2.62;;;;;;;;;;4391312;32;20293;-85
2022/07/08 14:35:25;;;;;;;3.40;2.00;;;;;;;;;;4391379;32;20194;-85
2022/07/08 14:37:51;;;;;;;3.10;2.08;;;;;;;;;;4391296;32;20284;-85
2022/07/08 14:40:17;;;;;;;12.15;3.05;;;;;;;;;;4391311;32;20193;-84
2022/07/08 14:42:43;;;;;;;3.58;2.62;;;;;;;;;;4390806;32;20540;-85
2022/07/08 14:45:09;;;;;;;9.38;2.62;;;;;;;;;;4390936;32;20273;-85